createdAt,value
2023-02-27T00:02:43.318Z,-0.50
2023-02-27T00:05:51.164Z,-0.50
2023-02-27T00:08:59.410Z,-0.50
2023-02-27T00:12:08.601Z,-0.60
2023-02-27T00:15:19.742Z,-0.60
2023-02-27T00:18:28.127Z,-0.60
2023-02-27T00:21:38.391Z,-0.66
2023-02-27T00:24:46.287Z,-0.70
2023-02-27T00:27:54.086Z,-0.70
2023-02-27T00:31:01.963Z,-0.70
2023-02-27T00:34:10.586Z,-0.78
2023-02-27T00:37:18.380Z,-0.80
2023-02-27T00:40:26.925Z,-0.80
2023-02-27T00:43:35.806Z,-0.90
2023-02-27T00:46:43.805Z,-0.90
2023-02-27T00:49:51.663Z,-0.90
2023-02-27T00:52:59.457Z,-0.98
2023-02-27T00:56:08.818Z,-1.00
2023-02-27T00:59:18.105Z,-0.94
2023-02-27T01:02:32.252Z,-0.90
2023-02-27T01:05:40.993Z,-1.00
2023-02-27T01:08:59.779Z,-1.00
2023-02-27T01:12:09.460Z,-1.00
2023-02-27T01:15:19.353Z,-1.00
2023-02-27T01:18:29.221Z,-0.98
2023-02-27T01:21:38.031Z,-0.90
2023-02-27T01:24:45.764Z,-0.90
2023-02-27T01:28:03.985Z,-0.90
2023-02-27T01:31:12.096Z,-0.90
2023-02-27T01:34:20.216Z,-0.90
2023-02-27T01:37:28.628Z,-0.90
2023-02-27T01:40:41.714Z,-0.90
2023-02-27T01:44:05.388Z,-0.90
2023-02-27T01:47:13.496Z,-0.88
2023-02-27T01:50:23.301Z,-0.90
2023-02-27T01:53:32.160Z,-0.90
2023-02-27T01:56:42.658Z,-0.90
2023-02-27T01:59:51.106Z,-0.90
2023-02-27T02:03:12.772Z,-0.90
2023-02-27T02:06:22.271Z,-0.90
2023-02-27T02:09:32.359Z,-0.90
2023-02-27T02:12:42.166Z,-0.90
2023-02-27T02:15:54.815Z,-0.90
2023-02-27T02:19:17.781Z,-0.90
2023-02-27T02:22:59.948Z,-0.90
2023-02-27T02:26:41.488Z,-0.92
2023-02-27T02:30:34.563Z,-0.90
2023-02-27T02:34:20.671Z,-0.90
2023-02-27T02:38:18.309Z,-0.90
2023-02-27T02:41:36.049Z,-1.00
2023-02-27T02:44:59.236Z,-1.00
2023-02-27T02:48:17.033Z,-1.00
2023-02-27T02:51:35.230Z,-1.06
2023-02-27T02:54:49.387Z,-1.10
2023-02-27T02:58:05.843Z,-1.06
2023-02-27T03:01:23.422Z,-1.00
2023-02-27T03:04:40.755Z,-1.00
2023-02-27T03:07:55.698Z,-1.00
2023-02-27T03:11:07.009Z,-1.00
2023-02-27T03:14:24.380Z,-0.90
2023-02-27T03:17:40.811Z,-0.92
2023-02-27T03:20:56.640Z,-0.90
2023-02-27T03:24:10.521Z,-0.92
2023-02-27T03:27:20.338Z,-0.98
2023-02-27T03:30:33.995Z,-0.96
2023-02-27T03:33:48.746Z,-0.90
2023-02-27T03:37:08.118Z,-0.90
2023-02-27T03:40:29.199Z,-0.90
2023-02-27T03:43:52.946Z,-0.90
2023-02-27T03:47:01.294Z,-0.90
2023-02-27T03:50:12.647Z,-0.80
2023-02-27T03:53:29.828Z,-0.80
2023-02-27T03:56:47.132Z,-0.80
2023-02-27T03:59:56.024Z,-0.80
2023-02-27T04:03:06.461Z,-0.80
2023-02-27T04:06:31.999Z,-0.84
2023-02-27T04:10:18.638Z,-0.90
2023-02-27T04:13:45.920Z,-0.90
2023-02-27T04:17:19.393Z,-0.98
2023-02-27T04:20:44.154Z,-1.00
2023-02-27T04:24:04.521Z,-1.00
2023-02-27T04:27:24.917Z,-0.92
2023-02-27T04:30:46.242Z,-0.90
2023-02-27T04:34:06.894Z,-0.90
2023-02-27T04:37:25.325Z,-0.90
2023-02-27T04:40:41.459Z,-0.90
2023-02-27T04:43:51.400Z,-0.90
2023-02-27T04:47:03.543Z,-0.90
2023-02-27T04:50:20.694Z,-0.90
2023-02-27T04:53:36.729Z,-0.90
2023-02-27T04:56:51.119Z,-0.90
2023-02-27T05:00:05.490Z,-0.90
2023-02-27T05:03:21.030Z,-0.90
2023-02-27T05:06:35.960Z,-0.94
2023-02-27T05:09:52.639Z,-1.00
2023-02-27T05:13:08.437Z,-1.00
2023-02-27T05:16:28.431Z,-1.00
2023-02-27T05:19:44.501Z,-1.02
2023-02-27T05:23:00.636Z,-1.06
2023-02-27T05:26:19.778Z,-1.10
2023-02-27T05:29:41.149Z,-1.10
2023-02-27T05:32:56.555Z,-1.10
2023-02-27T05:36:12.688Z,-1.10
2023-02-27T05:39:25.017Z,-1.16
2023-02-27T05:42:38.663Z,-1.20
2023-02-27T05:45:53.917Z,-1.22
2023-02-27T05:49:08.996Z,-1.24
2023-02-27T05:52:24.668Z,-1.30
2023-02-27T05:55:38.234Z,-1.30
2023-02-27T05:58:52.836Z,-1.30
2023-02-27T06:02:01.168Z,-1.30
2023-02-27T06:05:10.565Z,-1.20
2023-02-27T06:08:18.447Z,-1.20
2023-02-27T06:11:26.471Z,-1.20
2023-02-27T06:14:34.580Z,-1.16
2023-02-27T06:17:42.555Z,-1.14
2023-02-27T06:20:51.474Z,-1.10
2023-02-27T06:23:59.483Z,-1.10
2023-02-27T06:27:07.880Z,-1.10
2023-02-27T06:30:17.997Z,-1.00
2023-02-27T06:33:26.329Z,-1.00
2023-02-27T06:36:34.284Z,-0.94
2023-02-27T06:39:42.338Z,-0.90
2023-02-27T06:42:50.506Z,-0.90
2023-02-27T06:45:59.767Z,-0.80
2023-02-27T06:49:08.190Z,-0.80
2023-02-27T06:52:16.459Z,-0.80
2023-02-27T06:55:25.804Z,-0.80
2023-02-27T06:58:33.793Z,-0.70
2023-02-27T07:01:41.942Z,-0.70
2023-02-27T07:04:50.409Z,-0.60
2023-02-27T07:07:59.579Z,-0.50
2023-02-27T07:11:08.323Z,-0.40
2023-02-27T07:14:16.813Z,-0.40
2023-02-27T07:17:24.812Z,-0.30
2023-02-27T07:20:32.861Z,-0.30
2023-02-27T07:23:40.984Z,-0.20
2023-02-27T07:26:49.114Z,-0.20
2023-02-27T07:29:57.479Z,-0.10
2023-02-27T07:33:06.194Z,-0.10
2023-02-27T07:36:14.718Z,0.00
2023-02-27T07:39:22.766Z,0.10
2023-02-27T07:42:30.763Z,0.10
2023-02-27T07:45:38.896Z,0.20
2023-02-27T07:48:47.062Z,0.20
2023-02-27T07:51:55.532Z,0.30
2023-02-27T07:55:03.388Z,0.30
2023-02-27T07:58:11.904Z,0.40
2023-02-27T08:01:20.028Z,0.50
2023-02-27T08:04:28.538Z,0.60
2023-02-27T08:07:36.757Z,0.70
2023-02-27T08:10:44.873Z,0.80
2023-02-27T08:14:00.623Z,0.96
2023-02-27T08:17:09.094Z,1.10
2023-02-27T08:20:22.697Z,1.20
2023-02-27T08:23:30.644Z,1.40
2023-02-27T08:26:38.813Z,1.60
2023-02-27T08:29:46.821Z,1.76
2023-02-27T08:32:56.486Z,1.90
2023-02-27T08:36:04.875Z,2.00
2023-02-27T08:39:13.326Z,2.00
2023-02-27T08:42:21.336Z,2.10
2023-02-27T08:45:29.302Z,2.20
2023-02-27T08:48:37.633Z,2.20
2023-02-27T08:51:45.535Z,2.30
2023-02-27T08:54:54.270Z,2.30
2023-02-27T08:58:02.516Z,2.38
2023-02-27T09:01:10.926Z,2.40
2023-02-27T09:04:18.940Z,2.40
2023-02-27T09:07:27.418Z,2.40
2023-02-27T09:10:35.368Z,2.40
2023-02-27T09:13:43.598Z,2.40
2023-02-27T09:16:52.141Z,2.40
2023-02-27T09:20:01.059Z,2.40
2023-02-27T09:23:08.990Z,2.46
2023-02-27T09:26:17.732Z,2.50
2023-02-27T09:29:28.125Z,2.52
2023-02-27T09:32:37.060Z,2.60
2023-02-27T09:35:45.300Z,2.70
2023-02-27T09:38:54.892Z,2.70
2023-02-27T09:42:09.779Z,2.70
2023-02-27T09:45:27.116Z,2.80
2023-02-27T09:48:42.936Z,2.80
2023-02-27T09:51:53.424Z,2.84
2023-02-27T09:55:01.550Z,2.90
2023-02-27T09:58:25.775Z,2.90
2023-02-27T10:01:42.341Z,2.98
2023-02-27T10:05:02.785Z,3.00
2023-02-27T10:08:23.234Z,3.00
2023-02-27T10:11:45.567Z,3.04
2023-02-27T10:15:00.845Z,3.10
2023-02-27T10:18:26.215Z,3.20
2023-02-27T10:21:41.053Z,3.30
2023-02-27T10:24:55.940Z,3.40
2023-02-27T10:28:15.076Z,3.50
2023-02-27T10:31:29.486Z,3.60
2023-02-27T10:34:41.375Z,3.70
2023-02-27T10:37:55.565Z,3.86
2023-02-27T10:41:05.339Z,3.90
2023-02-27T10:44:19.047Z,3.90
2023-02-27T10:47:29.889Z,3.90
2023-02-27T10:50:42.916Z,3.90
2023-02-27T10:53:52.957Z,3.90
2023-02-27T10:57:04.321Z,3.82
2023-02-27T11:00:33.842Z,3.80
2023-02-27T11:03:45.399Z,3.80
2023-02-27T11:06:57.541Z,3.90
2023-02-27T11:10:24.887Z,3.90
2023-02-27T11:13:36.404Z,4.00
2023-02-27T11:16:56.342Z,4.00
2023-02-27T11:20:07.058Z,4.06
2023-02-27T11:23:23.298Z,4.10
2023-02-27T11:26:38.694Z,4.06
2023-02-27T11:30:02.841Z,4.00
2023-02-27T11:33:22.475Z,4.00
2023-02-27T11:36:45.893Z,4.00
2023-02-27T11:40:02.668Z,4.00
2023-02-27T11:43:20.700Z,4.02
2023-02-27T11:46:46.890Z,4.10
2023-02-27T11:50:41.282Z,4.10
2023-02-27T11:54:19.401Z,4.10
2023-02-27T11:57:34.852Z,4.10
2023-02-27T12:00:49.721Z,4.14
2023-02-27T12:04:06.825Z,4.20
2023-02-27T12:07:27.496Z,4.22
2023-02-27T12:10:47.240Z,4.30
2023-02-27T12:14:05.021Z,4.30
2023-02-27T12:17:25.257Z,4.40
2023-02-27T12:20:41.908Z,4.40
2023-02-27T12:23:57.443Z,4.42
2023-02-27T12:27:22.142Z,4.50
2023-02-27T12:30:37.989Z,4.50
2023-02-27T12:33:56.534Z,4.54
2023-02-27T12:37:11.746Z,4.60
2023-02-27T12:40:25.015Z,4.60
2023-02-27T12:43:47.182Z,4.60
2023-02-27T12:47:10.013Z,4.60
2023-02-27T12:50:23.381Z,4.60
2023-02-27T12:53:53.970Z,4.70
2023-02-27T12:57:20.170Z,4.84
2023-02-27T13:00:38.857Z,5.00
2023-02-27T13:03:58.045Z,5.10
2023-02-27T13:07:15.010Z,5.16
2023-02-27T13:10:35.300Z,5.20
2023-02-27T13:13:49.193Z,5.20
2023-02-27T13:17:05.051Z,5.10
2023-02-27T13:20:34.774Z,5.10
2023-02-27T13:23:58.864Z,5.12
2023-02-27T13:27:15.882Z,5.30
2023-02-27T13:30:31.315Z,5.56
2023-02-27T13:33:55.870Z,5.70
2023-02-27T13:37:08.950Z,5.90
2023-02-27T13:40:36.917Z,5.90
2023-02-27T13:43:52.069Z,6.00
2023-02-27T13:47:54.588Z,5.90
2023-02-27T13:51:04.609Z,5.80
2023-02-27T13:54:36.482Z,5.74
2023-02-27T13:57:48.568Z,5.70
2023-02-27T14:01:05.727Z,5.60
2023-02-27T14:04:25.242Z,5.50
2023-02-27T14:07:50.688Z,5.48
2023-02-27T14:11:11.371Z,5.50
2023-02-27T14:14:46.032Z,5.50
2023-02-27T14:18:09.293Z,5.60
2023-02-27T14:22:01.608Z,5.64
2023-02-27T14:25:32.554Z,5.76
2023-02-27T14:28:51.902Z,5.90
2023-02-27T14:32:04.308Z,6.00
2023-02-27T14:35:18.361Z,6.14
2023-02-27T14:38:28.096Z,6.40
2023-02-27T14:41:49.879Z,6.60
2023-02-27T14:44:59.502Z,6.60
2023-02-27T14:48:12.046Z,6.70
2023-02-27T14:51:20.963Z,6.70
2023-02-27T14:54:30.926Z,6.50
2023-02-27T14:57:37.909Z,6.40
2023-02-27T15:00:50.816Z,6.40
2023-02-27T15:04:01.875Z,6.30
2023-02-27T15:07:24.567Z,6.20
2023-02-27T15:10:34.115Z,6.20
2023-02-27T15:13:45.665Z,6.20
2023-02-27T15:16:59.032Z,6.18
2023-02-27T15:20:27.504Z,6.10
2023-02-27T15:23:35.506Z,6.00
2023-02-27T15:26:46.336Z,6.00
2023-02-27T15:29:58.025Z,6.00
2023-02-27T15:33:13.273Z,5.90
2023-02-27T15:36:27.293Z,5.80
2023-02-27T15:39:38.014Z,5.60
2023-02-27T15:42:46.997Z,5.40
2023-02-27T15:45:56.220Z,5.20
2023-02-27T15:49:04.554Z,5.00
2023-02-27T15:52:22.328Z,4.90
2023-02-27T15:55:38.933Z,4.70
2023-02-27T15:59:00.194Z,4.60
2023-02-27T16:02:19.935Z,4.42
2023-02-27T16:05:34.187Z,4.30
2023-02-27T16:08:50.053Z,4.20
2023-02-27T16:12:22.521Z,4.20
2023-02-27T16:15:36.762Z,4.10
2023-02-27T16:18:53.026Z,3.98
2023-02-27T16:22:17.570Z,3.80
2023-02-27T16:25:26.301Z,3.70
2023-02-27T16:28:44.569Z,3.60
2023-02-27T16:31:56.812Z,3.50
2023-02-27T16:35:18.480Z,3.48
2023-02-27T16:38:26.369Z,3.40
2023-02-27T16:41:34.753Z,3.22
2023-02-27T16:44:42.796Z,3.10
2023-02-27T16:47:54.343Z,3.00
2023-02-27T16:51:02.504Z,2.90
2023-02-27T16:54:13.682Z,2.72
2023-02-27T16:57:27.867Z,2.56
2023-02-27T17:00:35.971Z,2.40
2023-02-27T17:03:44.674Z,2.30
2023-02-27T17:06:53.305Z,2.24
2023-02-27T17:10:01.216Z,2.18
2023-02-27T17:13:09.134Z,2.00
2023-02-27T17:16:18.387Z,2.00
2023-02-27T17:19:27.478Z,1.90
2023-02-27T17:22:40.725Z,1.80
2023-02-27T17:25:49.230Z,1.78
2023-02-27T17:28:58.698Z,1.70
2023-02-27T17:32:07.244Z,1.66
2023-02-27T17:35:15.807Z,1.60
2023-02-27T17:38:24.371Z,1.56
2023-02-27T17:41:34.080Z,1.48
2023-02-27T17:44:44.035Z,1.40
2023-02-27T17:47:55.732Z,1.40
2023-02-27T17:51:12.496Z,1.30
2023-02-27T17:54:20.351Z,1.30
2023-02-27T17:57:28.060Z,1.20
2023-02-27T18:00:36.151Z,1.08
2023-02-27T18:03:45.286Z,1.00
2023-02-27T18:06:54.206Z,0.90
2023-02-27T18:10:02.721Z,0.80
2023-02-27T18:13:11.216Z,0.70
2023-02-27T18:16:19.271Z,0.62
2023-02-27T18:19:27.791Z,0.60
2023-02-27T18:22:36.060Z,0.50
2023-02-27T18:25:44.615Z,0.50
2023-02-27T18:28:54.496Z,0.40
2023-02-27T18:32:00.947Z,0.40
2023-02-27T18:35:10.381Z,0.30
2023-02-27T18:38:18.713Z,0.30
2023-02-27T18:41:30.220Z,0.20
2023-02-27T18:44:40.794Z,0.20
2023-02-27T18:47:51.391Z,0.30
2023-02-27T18:51:04.979Z,0.30
2023-02-27T18:54:16.811Z,0.30
2023-02-27T18:57:29.351Z,0.30
2023-02-27T19:00:38.104Z,0.30
2023-02-27T19:03:47.283Z,0.30
2023-02-27T19:06:56.247Z,0.24
2023-02-27T19:10:04.363Z,0.26
2023-02-27T19:13:14.032Z,0.20
2023-02-27T19:16:23.143Z,0.20
2023-02-27T19:19:31.464Z,0.18
2023-02-27T19:22:43.048Z,0.04
2023-02-27T19:25:58.864Z,-0.10
2023-02-27T19:29:07.890Z,-0.20
2023-02-27T19:32:16.374Z,-0.30
2023-02-27T19:35:25.952Z,-0.30
2023-02-27T19:38:34.084Z,-0.36
2023-02-27T19:41:42.477Z,-0.40
2023-02-27T19:44:51.176Z,-0.48
2023-02-27T19:47:59.328Z,-0.50
2023-02-27T19:51:10.077Z,-0.58
2023-02-27T19:54:19.148Z,-0.60
2023-02-27T19:57:27.939Z,-0.60
2023-02-27T20:00:36.121Z,-0.60
2023-02-27T20:03:44.574Z,-0.62
2023-02-27T20:06:53.823Z,-0.70
2023-02-27T20:10:02.605Z,-0.70
2023-02-27T20:13:11.051Z,-0.72
2023-02-27T20:16:24.097Z,-0.80
2023-02-27T20:19:32.273Z,-0.80
2023-02-27T20:22:44.170Z,-0.84
2023-02-27T20:25:52.612Z,-0.90
2023-02-27T20:29:06.060Z,-0.90
2023-02-27T20:32:14.466Z,-1.00
2023-02-27T20:35:22.644Z,-1.00
2023-02-27T20:38:33.460Z,-1.00
2023-02-27T20:41:41.594Z,-1.00
2023-02-27T20:44:53.350Z,-1.00
2023-02-27T20:48:01.358Z,-1.02
2023-02-27T20:51:16.734Z,-1.08
2023-02-27T20:54:24.512Z,-1.10
2023-02-27T20:57:32.686Z,-1.10
2023-02-27T21:00:41.259Z,-1.10
2023-02-27T21:03:51.736Z,-1.14
2023-02-27T21:07:00.338Z,-1.20
2023-02-27T21:10:10.291Z,-1.20
2023-02-27T21:13:18.349Z,-1.28
2023-02-27T21:16:27.193Z,-1.30
2023-02-27T21:19:35.200Z,-1.30
2023-02-27T21:22:43.247Z,-1.36
2023-02-27T21:25:51.502Z,-1.40
2023-02-27T21:29:02.630Z,-1.40
2023-02-27T21:32:11.021Z,-1.40
2023-02-27T21:35:18.993Z,-1.50
2023-02-27T21:38:26.785Z,-1.50
2023-02-27T21:41:35.563Z,-1.50
2023-02-27T21:44:43.920Z,-1.50
2023-02-27T21:47:52.036Z,-1.50
2023-02-27T21:51:04.898Z,-1.50
2023-02-27T21:54:15.547Z,-1.50
2023-02-27T21:57:23.354Z,-1.50
2023-02-27T22:00:33.684Z,-1.50
2023-02-27T22:03:42.093Z,-1.50
2023-02-27T22:06:51.512Z,-1.42
2023-02-27T22:09:59.493Z,-1.40
2023-02-27T22:13:07.577Z,-1.40
2023-02-27T22:16:16.890Z,-1.40
2023-02-27T22:19:24.862Z,-1.40
2023-02-27T22:22:32.675Z,-1.44
2023-02-27T22:25:41.138Z,-1.40
2023-02-27T22:28:49.665Z,-1.40
2023-02-27T22:31:57.888Z,-1.40
2023-02-27T22:35:06.886Z,-1.40
2023-02-27T22:38:14.776Z,-1.34
2023-02-27T22:41:26.308Z,-1.30
2023-02-27T22:44:34.216Z,-1.30
2023-02-27T22:47:42.378Z,-1.30
2023-02-27T22:50:59.657Z,-1.30
2023-02-27T22:54:10.413Z,-1.20
2023-02-27T22:57:18.465Z,-1.20
2023-02-27T23:00:26.787Z,-1.20
2023-02-27T23:03:34.603Z,-1.20
2023-02-27T23:06:44.296Z,-1.10
2023-02-27T23:09:52.563Z,-1.10
2023-02-27T23:13:00.421Z,-1.02
2023-02-27T23:16:13.974Z,-1.00
2023-02-27T23:19:24.100Z,-1.00
2023-02-27T23:22:33.609Z,-0.90
2023-02-27T23:25:42.453Z,-0.90
2023-02-27T23:28:50.978Z,-0.90
2023-02-27T23:31:59.164Z,-0.90
2023-02-27T23:35:07.762Z,-0.88
2023-02-27T23:38:15.591Z,-0.80
2023-02-27T23:41:23.481Z,-0.80
2023-02-27T23:44:32.453Z,-0.80
2023-02-27T23:47:42.914Z,-0.76
2023-02-27T23:50:51.186Z,-0.70
2023-02-27T23:53:59.151Z,-0.70
2023-02-27T23:57:07.143Z,-0.70
